Time;durP1;ratioP1;P1;durP2;ratioP2;P2;SDS_P1;SDS_P2;PMS_P1;PMS_P2;Temp;Humidity;BMP_temperature;BMP_pressure;BME280_temperature;BME280_humidity;BME280_pressure;Samples;Min_cycle;Max_cycle;Signal;HPM_P1;HPM_P2
2023/06/24 00:02:06;;;;;;;9.90;8.70;;;;;;;20.13;100.00;97307.96;110126;1244;58913;-65
2023/06/24 00:04:36;;;;;;;12.10;9.80;;;;;;;20.15;100.00;97307.32;110091;1242;58889;-65
2023/06/24 00:07:06;;;;;;;11.80;9.40;;;;;;;20.15;100.00;97309.80;109400;1242;555351;-67
2023/06/24 00:09:38;;;;;;;11.90;8.90;;;;;;;20.15;100.00;97316.70;110106;1243;69718;-65
2023/06/24 00:12:08;;;;;;;13.30;9.40;;;;;;;20.13;100.00;97322.63;109849;1241;67354;-64
2023/06/24 00:14:39;;;;;;;11.90;9.00;;;;;;;20.11;100.00;97331.50;110063;1243;58928;-65
2023/06/24 00:17:09;;;;;;;14.40;9.60;;;;;;;20.10;100.00;97328.45;110062;1243;58883;-64
2023/06/24 00:19:40;;;;;;;11.00;7.90;;;;;;;20.07;100.00;97320.93;110070;1243;70476;-65
2023/06/24 00:22:09;;;;;;;12.50;9.70;;;;;;;20.03;100.00;97313.78;110040;1241;69859;-67
2023/06/24 00:24:42;;;;;;;11.50;8.90;;;;;;;20.02;100.00;97308.26;110045;1244;68434;-66
2023/06/24 00:27:12;;;;;;;13.00;9.60;;;;;;;20.03;100.00;97310.64;110060;1243;58948;-64
2023/06/24 00:29:43;;;;;;;12.10;8.40;;;;;;;20.03;100.00;97307.79;110084;1244;58895;-66
2023/06/24 00:32:12;;;;;;;11.00;8.50;;;;;;;20.04;100.00;97313.91;109946;1244;70911;-64
2023/06/24 00:34:43;;;;;;;;;;;;;;;20.03;100.00;97313.66;109987;1244;69820;-64
2023/06/24 00:37:14;;;;;;;13.40;8.90;;;;;;;20.01;100.00;97308.19;109899;1243;68347;-66
2023/06/24 00:39:43;;;;;;;11.50;8.70;;;;;;;20.01;100.00;97311.38;110067;1244;58881;-66
2023/06/24 00:42:12;;;;;;;12.10;8.90;;;;;;;20.00;100.00;97310.38;110036;1244;58859;-66
2023/06/24 00:44:43;;;;;;;11.30;7.50;;;;;;;19.98;100.00;97320.21;110105;1243;70623;-66
2023/06/24 00:47:14;;;;;;;10.90;8.60;;;;;;;19.95;100.00;97323.11;109821;1246;69065;-66
2023/06/24 00:49:45;;;;;;;;;;;;;;;19.92;100.00;97319.19;109996;1243;69325;-66
2023/06/24 00:52:15;;;;;;;12.10;8.60;;;;;;;19.88;100.00;97317.34;109918;1244;58916;-66
2023/06/24 00:54:45;;;;;;;14.10;9.40;;;;;;;19.86;100.00;97327.81;110134;1241;58920;-66
2023/06/24 00:57:23;;;;;;;13.30;9.40;;;;;;;19.83;100.00;97335.85;110027;1243;69932;-67
2023/06/24 00:59:53;;;;;;;12.00;9.70;;;;;;;19.81;100.00;97340.27;109959;1245;68962;-66
2023/06/24 01:02:27;;;;;;;12.00;9.30;;;;;;;19.80;100.00;97346.20;109792;1244;68727;-67
2023/06/24 01:04:58;;;;;;;14.10;9.40;;;;;;;19.65;100.00;97359.08;109852;1243;58927;-66
2023/06/24 01:07:31;;;;;;;13.30;10.80;;;;;;;19.61;100.00;97358.55;110048;1244;58889;-66
2023/06/24 01:10:01;;;;;;;13.30;9.50;;;;;;;19.56;100.00;97366.40;110121;1245;71245;-67
2023/06/24 01:12:34;;;;;;;12.30;10.20;;;;;;;19.54;100.00;97368.91;110088;1244;69278;-66
2023/06/24 01:15:10;;;;;;;13.30;8.80;;;;;;;19.53;100.00;97377.03;109845;1241;69908;-66
2023/06/24 01:18:32;;;;;;;12.10;9.00;;;;;;;19.52;100.00;97381.02;110139;1243;58934;-66
2023/06/24 01:21:04;;;;;;;11.40;8.90;;;;;;;19.52;100.00;97375.69;109783;1244;58919;-67
2023/06/24 01:24:12;;;;;;;13.10;9.10;;;;;;;19.53;100.00;97367.27;110057;1243;69958;-65
2023/06/24 01:27:07;;;;;;;13.20;9.00;;;;;;;19.54;100.00;97367.66;109917;1244;69298;-66
2023/06/24 01:29:45;;;;;;;12.50;8.70;;;;;;;19.56;100.00;97369.74;109768;1244;69184;-67
2023/06/24 01:32:16;;;;;;;11.70;8.20;;;;;;;19.56;100.00;97378.63;109860;1244;58962;-67
2023/06/24 01:35:12;;;;;;;14.90;10.30;;;;;;;19.55;100.00;97397.30;109892;1244;58875;-68
2023/06/24 01:37:51;;;;;;;14.60;9.60;;;;;;;19.56;100.00;97414.02;109762;1246;70757;-64
2023/06/24 01:40:40;;;;;;;15.30;9.90;;;;;;;19.38;100.00;97421.39;110088;1241;69378;-66
2023/06/24 01:43:13;;;;;;;14.80;9.10;;;;;;;19.24;100.00;97426.98;110097;1243;69298;-67
2023/06/24 01:45:52;;;;;;;12.00;8.80;;;;;;;19.19;100.00;97439.68;110100;1244;58866;-65
2023/06/24 01:48:36;;;;;;;9.70;8.00;;;;;;;19.21;100.00;97455.02;110090;1244;59261;-67
2023/06/24 01:51:13;;;;;;;10.40;7.80;;;;;;;19.22;100.00;97478.44;110123;1244;70718;-65
2023/06/24 01:53:58;;;;;;;11.10;7.70;;;;;;;19.26;100.00;97487.77;110140;1242;68550;-68
2023/06/24 01:56:29;;;;;;;11.60;8.20;;;;;;;19.32;100.00;97485.45;109846;1247;70284;-64
2023/06/24 01:59:04;;;;;;;10.70;7.80;;;;;;;19.38;100.00;97482.98;109765;1247;59024;-66
2023/06/24 02:01:36;;;;;;;10.50;7.20;;;;;;;19.40;100.00;97482.39;109796;1247;58939;-66
2023/06/24 02:04:11;;;;;;;11.00;6.50;;;;;;;19.40;100.00;97484.83;109864;1243;70584;-65
2023/06/24 02:06:44;;;;;;;10.40;6.00;;;;;;;19.42;100.00;97497.04;109823;1244;68311;-65
2023/06/24 02:09:19;;;;;;;8.30;5.50;;;;;;;19.42;100.00;97497.50;109864;1244;68586;-65
2023/06/24 02:11:50;;;;;;;10.00;5.60;;;;;;;19.43;100.00;97493.89;110107;1249;58939;-67
2023/06/24 02:14:26;;;;;;;10.30;5.30;;;;;;;19.42;100.00;97494.65;109851;1242;58876;-67
2023/06/24 02:17:01;;;;;;;7.70;5.10;;;;;;;19.43;100.00;97501.48;109833;1244;69599;-67
2023/06/24 02:19:42;;;;;;;7.70;4.40;;;;;;;19.42;100.00;97502.64;109890;1244;69120;-67
2023/06/24 02:22:14;;;;;;;8.30;4.20;;;;;;;19.41;100.00;97496.73;110167;1245;69387;-65
2023/06/24 02:24:47;;;;;;;5.50;3.30;;;;;;;19.37;100.00;97488.82;109901;1241;58918;-67
2023/06/24 02:27:20;;;;;;;6.40;3.50;;;;;;;19.37;100.00;97484.31;110113;1243;58880;-64
2023/06/24 02:29:52;;;;;;;6.30;3.00;;;;;;;19.37;100.00;97482.36;110007;1241;71207;-66
2023/06/24 02:32:23;;;;;;;7.10;4.10;;;;;;;19.36;100.00;97489.54;110085;1242;68565;-66
2023/06/24 02:34:57;;;;;;;7.60;3.70;;;;;;;19.32;100.00;97494.98;110209;1243;69328;-63
2023/06/24 02:37:31;;;;;;;7.20;3.80;;;;;;;19.32;100.00;97495.02;110035;1244;58865;-65
2023/06/24 02:40:03;;;;;;;6.70;3.10;;;;;;;19.28;100.00;97485.90;110095;1244;58852;-65
2023/06/24 02:42:33;;;;;;;8.20;2.80;;;;;;;19.30;100.00;97483.64;109871;1247;69623;-65
2023/06/24 02:45:06;;;;;;;6.70;3.30;;;;;;;19.27;100.00;97490.30;110129;1243;69244;-66
2023/06/24 02:47:39;;;;;;;6.70;3.00;;;;;;;19.30;100.00;97495.63;109868;1246;69224;-67
2023/06/24 02:50:10;;;;;;;6.00;3.00;;;;;;;19.31;100.00;97488.42;110104;1244;58897;-66
2023/06/24 02:52:41;;;;;;;5.80;2.90;;;;;;;19.33;100.00;97495.94;109811;1246;59273;-66
2023/06/24 02:55:15;;;;;;;5.80;3.00;;;;;;;19.37;100.00;97513.60;110132;1241;71026;-67
2023/06/24 02:57:55;;;;;;;4.50;2.70;;;;;;;19.40;100.00;97557.63;110136;1244;69298;-67
2023/06/24 03:00:44;;;;;;;5.00;2.50;;;;;;;19.38;100.00;97595.27;110186;1243;69678;-65
2023/06/24 03:03:36;;;;;;;5.80;2.70;;;;;;;19.18;100.00;97635.23;110003;1244;58865;-66
2023/06/24 03:06:12;;;;;;;4.10;2.50;;;;;;;19.05;100.00;97671.67;110132;1244;58943;-67
2023/06/24 03:08:42;;;;;;;7.30;3.00;;;;;;;19.01;100.00;97688.74;110146;1241;70649;-66
2023/06/24 03:11:13;;;;;;;8.20;3.20;;;;;;;18.74;100.00;97724.08;109967;1244;69235;-66
2023/06/24 03:13:44;;;;;;;8.40;3.00;;;;;;;18.22;100.00;97757.55;109870;1245;69144;-66
2023/06/24 03:16:22;;;;;;;7.40;3.10;;;;;;;17.90;100.00;97789.80;110139;1241;58865;-66
2023/06/24 03:18:59;;;;;;;9.10;2.70;;;;;;;17.60;100.00;97813.46;110147;1244;59268;-66
2023/06/24 03:21:30;;;;;;;7.90;3.40;;;;;;;17.31;100.00;97818.13;109939;1246;70044;-65
2023/06/24 03:24:13;;;;;;;7.50;3.50;;;;;;;17.22;100.00;97800.48;110180;1242;69719;-64
2023/06/24 03:26:44;;;;;;;8.60;3.30;;;;;;;17.19;100.00;97794.42;110029;1244;69162;-66
2023/06/24 03:29:17;;;;;;;10.90;3.40;;;;;;;17.13;100.00;97759.55;109937;1244;59306;-67
2023/06/24 03:32:05;;;;;;;5.40;2.70;;;;;;;17.13;100.00;97702.68;109965;1244;58897;-67
2023/06/24 03:34:37;;;;;;;5.10;3.00;;;;;;;17.08;100.00;97671.16;109888;1242;68881;-65
2023/06/24 03:37:10;;;;;;;6.70;2.60;;;;;;;17.10;100.00;97644.20;109796;1247;69249;-67
2023/06/24 03:39:42;;;;;;;4.80;2.50;;;;;;;17.11;100.00;97612.02;109953;1244;69457;-66
2023/06/24 03:42:13;;;;;;;6.70;2.80;;;;;;;17.13;100.00;97589.31;109863;1247;58937;-66
2023/06/24 03:44:45;;;;;;;5.40;2.50;;;;;;;17.12;100.00;97550.17;109957;1244;58946;-65
2023/06/24 03:47:15;;;;;;;5.20;2.50;;;;;;;17.13;100.00;97465.31;109724;1244;69899;-67
2023/06/24 03:49:45;;;;;;;;;;;;;;;17.09;100.00;97408.84;109754;1243;69204;-67
2023/06/24 03:52:17;;;;;;;6.20;2.80;;;;;;;17.00;100.00;97356.56;109815;1247;69159;-66
2023/06/24 03:54:47;;;;;;;8.00;3.10;;;;;;;16.93;100.00;97321.36;109856;1247;58925;-66
2023/06/24 03:57:18;;;;;;;5.30;2.90;;;;;;;16.91;100.00;97301.02;110048;1244;58953;-66
2023/06/24 03:59:47;;;;;;;4.40;2.10;;;;;;;16.92;100.00;97260.22;109836;1242;71022;-66
2023/06/24 04:02:17;;;;;;;5.20;2.80;;;;;;;16.99;100.00;97181.16;109798;1244;69855;-64
2023/06/24 04:04:50;;;;;;;8.20;2.60;;;;;;;17.05;100.00;97178.48;109724;1247;69717;-65
2023/06/24 04:07:27;;;;;;;6.00;2.40;;;;;;;17.08;100.00;97231.34;109915;1245;59420;-65
2023/06/24 04:09:58;;;;;;;8.40;2.90;;;;;;;17.16;100.00;97231.22;109989;1245;58876;-65
2023/06/24 04:12:28;;;;;;;5.30;2.70;;;;;;;17.21;100.00;97229.48;109928;1244;69632;-64
2023/06/24 04:14:58;;;;;;;4.50;2.50;;;;;;;17.25;100.00;97248.24;109797;1244;68549;-65
2023/06/24 04:17:29;;;;;;;6.70;2.30;;;;;;;17.28;100.00;97263.24;109740;1247;68655;-66
2023/06/24 04:20:03;;;;;;;5.70;2.30;;;;;;;17.32;100.00;97294.04;109936;1244;58927;-65
2023/06/24 04:22:33;;;;;;;4.10;2.30;;;;;;;17.34;100.00;97304.72;109852;1244;58836;-65
2023/06/24 04:25:08;;;;;;;4.90;2.40;;;;;;;17.40;100.00;97302.60;109950;1243;70601;-65
2023/06/24 04:27:39;;;;;;;3.90;2.10;;;;;;;17.46;100.00;97283.27;109898;1242;67507;-65
2023/06/24 04:30:10;;;;;;;4.50;2.20;;;;;;;17.56;100.00;97286.77;109827;1244;70041;-65
2023/06/24 04:32:39;;;;;;;5.00;2.20;;;;;;;17.67;100.00;97296.93;109827;1245;58888;-66
2023/06/24 04:35:09;;;;;;;6.80;2.10;;;;;;;17.76;100.00;97286.84;109927;1243;58969;-66
2023/06/24 04:37:39;;;;;;;4.70;2.00;;;;;;;17.85;100.00;97287.05;109935;1242;71599;-66
2023/06/24 04:40:09;;;;;;;5.60;2.00;;;;;;;17.91;100.00;97279.86;109791;1246;69890;-65
2023/06/24 04:42:40;;;;;;;4.70;2.00;;;;;;;17.97;100.00;97283.42;109794;1244;69335;-65
2023/06/24 04:45:10;;;;;;;4.00;1.80;;;;;;;17.98;100.00;97291.48;109760;1244;58871;-67
2023/06/24 04:47:39;;;;;;;4.30;1.90;;;;;;;17.96;100.00;97317.09;109779;1243;58955;-65
2023/06/24 04:50:12;;;;;;;6.00;2.60;;;;;;;17.82;100.00;97326.96;109828;1243;69673;-64
2023/06/24 04:52:41;;;;;;;4.70;2.50;;;;;;;17.63;100.00;97354.92;109861;1243;69642;-65
2023/06/24 04:55:11;;;;;;;5.10;2.00;;;;;;;17.66;100.00;97394.36;109716;1244;67573;-67
2023/06/24 04:57:42;;;;;;;5.40;2.20;;;;;;;17.64;100.00;97393.15;109818;1244;58943;-65
2023/06/24 05:00:12;;;;;;;6.20;2.30;;;;;;;17.64;100.00;97395.94;109807;1242;58942;-68
2023/06/24 05:02:41;;;;;;;5.80;2.40;;;;;;;17.63;100.00;97393.74;109985;1244;71141;-66
2023/06/24 05:05:11;;;;;;;;;;;;;;;17.50;100.00;97400.88;110137;1244;69122;-66
2023/06/24 05:07:41;;;;;;;5.50;2.30;;;;;;;17.54;100.00;97384.48;110102;1244;69835;-66
2023/06/24 05:10:10;;;;;;;5.90;2.90;;;;;;;17.56;100.00;97383.04;110099;1244;58865;-66
2023/06/24 05:12:39;;;;;;;7.10;2.80;;;;;;;17.57;100.00;97385.48;110099;1241;58924;-67
2023/06/24 05:15:09;;;;;;;7.00;3.00;;;;;;;17.49;100.00;97376.62;110098;1244;70517;-66
2023/06/24 05:17:39;;;;;;;7.10;2.50;;;;;;;17.50;100.00;97379.75;110129;1243;68765;-65
2023/06/24 05:20:09;;;;;;;5.50;2.90;;;;;;;17.46;100.00;97374.67;110196;1242;69232;-65
2023/06/24 05:22:38;;;;;;;6.00;2.90;;;;;;;17.49;100.00;97372.42;109769;1248;58933;-65
2023/06/24 05:25:07;;;;;;;6.40;2.60;;;;;;;17.51;100.00;97362.88;109809;1244;59346;-65
2023/06/24 05:27:36;;;;;;;;;;;;;;;17.51;100.00;97364.02;109805;1244;70066;-64
2023/06/24 05:30:06;;;;;;;;;;;;;;;17.48;100.00;97358.11;109797;1244;69294;-66
2023/06/24 05:32:36;;;;;;;6.00;2.90;;;;;;;17.48;100.00;97361.80;109800;1246;69872;-66
2023/06/24 05:35:06;;;;;;;5.70;2.40;;;;;;;17.49;100.00;97344.58;109902;1244;58939;-65
2023/06/24 05:37:35;;;;;;;6.60;2.80;;;;;;;17.51;100.00;97351.33;109829;1243;58881;-65
2023/06/24 05:40:06;;;;;;;;;;;;;;;17.52;100.00;97359.31;109906;1244;69484;-65
2023/06/24 05:42:35;;;;;;;6.00;2.60;;;;;;;17.50;100.00;97351.05;109813;1244;68849;-66
2023/06/24 05:45:06;;;;;;;4.90;2.80;;;;;;;17.52;100.00;97343.38;109792;1244;69431;-65
2023/06/24 05:47:35;;;;;;;5.40;2.50;;;;;;;17.55;100.00;97330.37;109960;1248;58952;-65
2023/06/24 05:50:05;;;;;;;5.90;2.80;;;;;;;17.61;100.00;97333.46;109978;1244;58870;-65
2023/06/24 05:52:34;;;;;;;;;;;;;;;17.70;100.00;97329.39;109792;1244;70111;-65
2023/06/24 05:55:04;;;;;;;5.50;2.30;;;;;;;17.79;100.00;97330.02;109793;1244;70031;-64
2023/06/24 05:57:32;;;;;;;4.90;2.20;;;;;;;17.84;100.00;97333.52;109747;1244;69867;-67
2023/06/24 06:00:03;;;;;;;5.50;2.60;;;;;;;17.89;100.00;97335.45;109956;1244;58908;-65
2023/06/24 06:02:40;;;;;;;6.10;2.70;;;;;;;17.93;100.00;97340.13;110043;1244;58825;-64
2023/06/24 06:05:10;;;;;;;6.60;2.50;;;;;;;17.96;100.00;97346.27;109793;1245;70576;-64
2023/06/24 06:07:39;;;;;;;5.10;2.20;;;;;;;18.04;100.00;97345.30;109859;1244;69132;-64
2023/06/24 06:10:10;;;;;;;7.50;2.70;;;;;;;18.13;100.00;97346.44;109866;1244;69176;-64
2023/06/24 06:12:39;;;;;;;5.70;2.20;;;;;;;18.22;100.00;97345.15;109825;1244;59689;-64
2023/06/24 06:15:09;;;;;;;5.70;2.20;;;;;;;18.33;100.00;97337.84;109958;1244;59681;-64
2023/06/24 06:17:38;;;;;;;4.70;2.50;;;;;;;18.43;100.00;97353.22;110143;1244;71407;-66
2023/06/24 06:20:08;;;;;;;5.10;2.50;;;;;;;18.53;100.00;97361.17;110099;1244;69835;-63
2023/06/24 06:22:38;;;;;;;4.60;2.20;;;;;;;18.64;100.00;97358.52;110076;1244;70165;-62
2023/06/24 06:25:07;;;;;;;5.90;2.30;;;;;;;18.78;100.00;97363.22;110108;1245;60149;-62
2023/06/24 06:27:36;;;;;;;5.80;2.30;;;;;;;18.83;100.00;97371.67;110062;1244;59633;-64
2023/06/24 06:30:07;;;;;;;7.80;2.50;;;;;;;18.79;100.00;97385.36;110145;1244;71837;-61
2023/06/24 06:32:36;;;;;;;5.00;2.20;;;;;;;18.88;100.00;97394.91;110119;1241;69815;-64
2023/06/24 06:35:06;;;;;;;4.40;2.10;;;;;;;18.86;100.00;97403.89;110148;1249;68908;-64
2023/06/24 06:37:36;;;;;;;4.40;2.20;;;;;;;19.04;100.00;97410.77;110144;1244;59742;-65
2023/06/24 06:40:06;;;;;;;5.60;2.50;;;;;;;19.09;100.00;97407.64;110190;1243;59685;-66
2023/06/24 06:42:35;;;;;;;6.50;2.30;;;;;;;19.15;100.00;97410.52;110102;1245;72245;-66
2023/06/24 06:45:05;;;;;;;;;;;;;;;19.28;100.00;97426.57;110078;1244;69302;-65
2023/06/24 06:47:33;;;;;;;3.90;2.50;;;;;;;19.38;100.00;97423.02;109943;1244;69853;-66
2023/06/24 06:50:03;;;;;;;8.20;2.60;;;;;;;19.51;100.00;97426.58;109992;1244;59709;-66
2023/06/24 06:52:32;;;;;;;5.30;2.50;;;;;;;19.72;100.00;97431.15;110008;1243;59743;-66
2023/06/24 06:55:01;;;;;;;8.10;3.00;;;;;;;19.93;100.00;97427.44;110118;1244;71733;-66
2023/06/24 06:57:31;;;;;;;;;;;;;;;20.22;100.00;97424.19;110116;1242;70052;-65
2023/06/24 07:00:00;;;;;;;;;;;;;;;20.45;100.00;97431.15;110188;1244;69255;-65
2023/06/24 07:02:29;;;;;;;;;;;;;;;20.74;100.00;97436.42;110082;1244;59698;-65
2023/06/24 07:05:00;;;;;;;;;;;;;;;20.85;100.00;97440.23;109984;1244;59693;-66
2023/06/24 07:07:29;;;;;;;4.10;2.10;;;;;;;21.13;98.93;97438.83;109844;1243;72274;-65
2023/06/24 07:09:58;;;;;;;6.10;2.10;;;;;;;21.47;97.80;97430.98;109972;1245;67844;-67
2023/06/24 07:12:27;;;;;;;;;;;;;;;21.74;94.75;97436.08;110087;1245;68512;-67
2023/06/24 07:14:57;;;;;;;7.50;2.60;;;;;;;22.13;93.69;97439.98;110094;1244;59664;-65
2023/06/24 07:17:25;;;;;;;7.10;2.30;;;;;;;22.41;90.28;97448.89;110086;1244;59746;-67
2023/06/24 07:19:54;;;;;;;5.10;2.00;;;;;;;22.66;86.78;97455.30;110066;1243;72000;-67
2023/06/24 07:22:23;;;;;;;5.80;1.90;;;;;;;22.94;87.46;97451.48;110078;1245;68535;-66
2023/06/24 07:24:52;;;;;;;5.30;1.80;;;;;;;23.36;83.84;97445.81;110088;1243;69300;-66
2023/06/24 07:27:21;;;;;;;3.40;1.70;;;;;;;23.84;80.34;97449.14;110053;1252;59705;-66
2023/06/24 07:29:51;;;;;;;3.10;1.80;;;;;;;24.27;78.05;97447.49;110091;1244;59744;-67
2023/06/24 07:32:19;;;;;;;4.30;1.70;;;;;;;24.73;79.63;97448.59;109864;1244;71498;-65
2023/06/24 07:34:49;;;;;;;;;;;;;;;24.98;73.88;97452.25;109878;1244;69334;-65
2023/06/24 07:37:18;;;;;;;3.90;1.70;;;;;;;25.20;70.56;97452.45;109970;1245;69308;-67
2023/06/24 07:39:52;;;;;;;5.30;1.90;;;;;;;25.40;68.97;97449.55;110032;1245;59765;-67
2023/06/24 07:42:21;;;;;;;4.70;1.80;;;;;;;25.25;68.36;97446.00;109972;1246;59774;-65
2023/06/24 07:44:50;;;;;;;;;;;;;;;25.58;69.25;97445.27;110010;1245;71940;-65
2023/06/24 07:47:19;;;;;;;3.80;1.90;;;;;;;26.02;68.09;97445.98;109769;1244;69224;-65
2023/06/24 07:49:48;;;;;;;4.40;1.90;;;;;;;26.26;65.97;97444.06;110051;1246;69584;-65
2023/06/24 07:52:17;;;;;;;5.50;2.00;;;;;;;26.85;67.71;97448.73;110047;1249;59747;-66
2023/06/24 07:54:46;;;;;;;4.00;2.00;;;;;;;27.30;65.78;97443.23;109826;1246;59687;-66
2023/06/24 07:57:15;;;;;;;;;;;;;;;27.62;65.62;97442.91;109830;1243;71958;-64
2023/06/24 07:59:44;;;;;;;6.20;2.30;;;;;;;27.99;64.33;97439.90;110011;1242;69135;-65
2023/06/24 08:02:13;;;;;;;4.70;1.90;;;;;;;28.33;62.82;97444.16;110078;1251;69270;-65
2023/06/24 08:04:42;;;;;;;;;;;;;;;28.78;62.66;97449.73;110021;1245;59659;-65
2023/06/24 08:07:11;;;;;;;;;;;;;;;29.10;60.18;97453.63;109974;1245;59691;-65
2023/06/24 08:09:40;;;;;;;;;;;;;;;29.27;59.13;97453.39;109854;1244;71783;-65
2023/06/24 08:12:09;;;;;;;3.80;1.70;;;;;;;29.46;57.52;97459.45;109752;1245;69549;-65
2023/06/24 08:14:38;;;;;;;4.00;1.60;;;;;;;29.82;55.68;97456.98;109789;1245;69875;-65
2023/06/24 08:17:08;;;;;;;3.30;1.50;;;;;;;30.08;55.70;97457.41;109987;1245;59746;-65
2023/06/24 08:19:37;;;;;;;;;;;;;;;30.13;55.60;97460.36;109969;1248;59627;-65
2023/06/24 08:22:06;;;;;;;;;;;;;;;30.02;52.82;97463.08;109919;1244;72686;-65
2023/06/24 08:24:36;;;;;;;3.00;1.40;;;;;;;30.22;53.91;97467.09;109798;1244;69899;-65
2023/06/24 08:27:06;;;;;;;4.00;1.80;;;;;;;30.53;54.18;97470.98;109738;1246;69846;-66
2023/06/24 08:29:34;;;;;;;5.20;1.80;;;;;;;30.24;52.58;97464.47;109748;1249;59702;-66
2023/06/24 08:32:06;;;;;;;3.70;1.60;;;;;;;29.99;52.10;97465.10;109777;1245;59699;-66
2023/06/24 08:34:35;;;;;;;5.20;2.00;;;;;;;29.80;53.01;97469.66;109842;1245;71992;-66
2023/06/24 08:37:04;;;;;;;4.60;1.80;;;;;;;29.59;54.02;97467.31;109821;1245;68279;-65
2023/06/24 08:39:33;;;;;;;;;;;;;;;29.61;53.98;97464.02;110011;1246;68652;-65
2023/06/24 08:42:03;;;;;;;15.20;9.80;;;;;;;29.63;55.14;97467.11;110038;1245;59737;-66
2023/06/24 08:44:32;;;;;;;10.50;7.00;;;;;;;29.83;53.57;97474.29;109922;1246;59636;-66
2023/06/24 08:47:00;;;;;;;;;;;;;;;30.01;52.14;97472.96;109885;1245;71332;-67
2023/06/24 08:49:30;;;;;;;10.10;8.00;;;;;;;29.99;52.15;97463.85;110072;1244;69187;-66
2023/06/24 08:52:13;;;;;;;7.40;4.40;;;;;;;30.16;53.34;97460.79;109899;1244;69707;-65
2023/06/24 08:54:45;;;;;;;4.50;3.10;;;;;;;30.24;52.54;97464.08;109759;1242;59677;-65
2023/06/24 08:57:15;;;;;;;5.00;3.60;;;;;;;30.13;52.51;97466.06;109962;1244;59690;-66
2023/06/24 08:59:44;;;;;;;5.40;3.30;;;;;;;30.07;51.59;97467.55;110043;1246;72058;-66
2023/06/24 09:02:13;;;;;;;5.40;2.40;;;;;;;29.90;52.48;97467.80;109836;1245;69646;-66
2023/06/24 09:04:43;;;;;;;3.50;1.90;;;;;;;30.19;52.02;97465.55;109932;1244;69976;-66
2023/06/24 09:07:12;;;;;;;;;;;;;;;30.40;52.61;97466.79;109818;1245;59822;-67
2023/06/24 09:09:44;;;;;;;5.30;2.20;;;;;;;30.33;48.43;97457.79;109987;1244;59719;-66
2023/06/24 09:12:15;;;;;;;7.80;2.20;;;;;;;30.37;49.64;97461.04;110025;1251;70489;-66
2023/06/24 09:14:50;;;;;;;4.60;2.20;;;;;;;30.34;50.16;97458.08;110076;1243;70018;-65
2023/06/24 09:17:22;;;;;;;4.00;1.90;;;;;;;30.31;51.02;97457.79;109940;1245;70058;-65
2023/06/24 09:19:51;;;;;;;4.70;1.90;;;;;;;30.12;53.12;97452.35;109914;1245;59633;-67
2023/06/24 09:33:47;;;;;;;5.30;2.30;;;;;;;31.18;49.70;97442.55;107207;1273;610129;-66
2023/06/24 09:36:16;;;;;;;6.10;2.20;;;;;;;30.94;49.49;97446.70;108943;1253;328237;-67
2023/06/24 09:38:45;;;;;;;4.30;1.90;;;;;;;31.03;49.94;97445.65;109307;1255;57735;-68
2023/06/24 09:41:15;;;;;;;4.90;2.00;;;;;;;31.15;49.79;97445.87;109379;1254;69916;-66
2023/06/24 09:43:44;;;;;;;5.80;1.90;;;;;;;31.09;50.32;97446.46;109343;1254;69794;-68
2023/06/24 09:46:14;;;;;;;3.80;1.70;;;;;;;31.06;49.12;97449.36;109217;1254;69858;-68
2023/06/24 09:48:43;;;;;;;4.60;2.60;;;;;;;30.98;48.89;97451.11;109335;1254;57712;-68
2023/06/24 09:51:13;;;;;;;8.10;3.70;;;;;;;30.96;49.34;97451.92;109313;1254;57770;-68
2023/06/24 09:53:44;;;;;;;6.60;3.50;;;;;;;30.85;50.32;97453.66;109349;1254;68829;-66
2023/06/24 09:56:15;;;;;;;5.30;2.90;;;;;;;30.91;50.51;97455.00;109297;1255;68943;-66
2023/06/24 09:58:46;;;;;;;5.20;2.90;;;;;;;30.93;50.29;97456.13;109264;1254;70330;-66
2023/06/24 10:01:16;;;;;;;5.20;2.30;;;;;;;30.92;50.81;97454.44;109221;1254;58086;-68
2023/06/24 10:03:45;;;;;;;5.90;2.70;;;;;;;30.92;51.12;97453.10;109276;1254;58079;-67
2023/06/24 10:06:15;;;;;;;3.70;2.20;;;;;;;30.90;49.66;97455.17;109298;1252;70213;-68
2023/06/24 10:08:44;;;;;;;3.00;1.80;;;;;;;30.68;48.64;97453.88;109296;1254;69822;-66
2023/06/24 10:11:13;;;;;;;6.70;2.20;;;;;;;30.46;49.77;97453.60;109305;1254;69902;-68
2023/06/24 10:13:41;;;;;;;5.30;2.80;;;;;;;30.42;51.56;97452.27;109281;1254;58144;-68
2023/06/24 10:16:11;;;;;;;3.60;1.70;;;;;;;30.52;52.22;97444.98;109362;1254;58142;-67
2023/06/24 10:18:41;;;;;;;5.50;2.10;;;;;;;30.83;50.98;97446.93;109266;1254;70207;-67
2023/06/24 10:21:11;;;;;;;4.90;2.30;;;;;;;30.67;52.00;97445.35;109308;1254;69683;-67
2023/06/24 10:23:42;;;;;;;4.40;1.90;;;;;;;30.63;52.31;97447.46;109800;1247;69334;-66
2023/06/24 10:26:28;;;;;;;4.60;2.10;;;;;;;30.57;52.50;97448.38;109770;1248;58137;-65
2023/06/24 10:29:06;;;;;;;4.20;2.10;;;;;;;30.63;52.58;97449.58;109789;1248;58193;-68
2023/06/24 10:31:44;;;;;;;6.10;2.20;;;;;;;30.65;51.76;97446.16;109772;1245;68273;-67
2023/06/24 10:34:23;;;;;;;5.80;2.30;;;;;;;30.50;51.44;97448.23;109856;1248;69267;-66
2023/06/24 10:37:04;;;;;;;5.90;2.20;;;;;;;30.19;50.13;97438.19;109758;1245;69816;-66
2023/06/24 10:39:57;;;;;;;4.60;2.00;;;;;;;30.61;51.54;97431.41;109759;1247;58132;-66
2023/06/24 10:42:46;;;;;;;5.30;2.10;;;;;;;30.75;50.65;97427.71;109782;1247;58069;-68
2023/06/24 10:45:17;;;;;;;5.10;2.10;;;;;;;30.74;53.07;97420.67;109764;1245;70017;-66
2023/06/24 10:47:49;;;;;;;4.60;2.20;;;;;;;30.82;51.48;97418.78;109767;1248;69803;-67
2023/06/24 10:50:20;;;;;;;5.50;2.00;;;;;;;30.78;50.69;97418.27;109786;1248;69082;-66
2023/06/24 10:52:57;;;;;;;4.50;1.80;;;;;;;30.76;51.66;97417.80;109782;1244;58126;-66
2023/06/24 10:55:27;;;;;;;4.70;2.20;;;;;;;31.02;51.44;97417.19;109744;1246;58068;-65
2023/06/24 10:58:08;;;;;;;4.20;2.00;;;;;;;31.02;51.08;97409.88;109756;1245;70364;-67
2023/06/24 11:00:41;;;;;;;6.60;2.30;;;;;;;31.04;50.97;97410.08;109726;1244;69871;-66
2023/06/24 11:03:15;;;;;;;5.80;2.30;;;;;;;31.11;51.29;97404.10;109810;1247;68475;-66
2023/06/24 11:05:48;;;;;;;5.30;2.20;;;;;;;31.23;51.71;97395.85;109844;1245;58160;-67
2023/06/24 11:08:17;;;;;;;6.70;2.10;;;;;;;31.35;52.34;97388.60;109797;1244;58147;-65
2023/06/24 11:10:48;;;;;;;6.10;1.80;;;;;;;31.29;50.13;97388.38;109758;1248;69178;-67
2023/06/24 11:13:20;;;;;;;3.20;2.00;;;;;;;31.57;51.64;97387.41;109810;1245;69436;-67
2023/06/24 11:15:49;;;;;;;5.60;1.90;;;;;;;31.91;49.80;97377.03;109773;1246;69284;-67
2023/06/24 11:18:18;;;;;;;;;;;;;;;31.96;48.73;97373.36;109827;1244;58215;-66
2023/06/24 11:20:47;;;;;;;3.30;1.70;;;;;;;32.01;49.29;97371.16;110346;1243;58461;-67
2023/06/24 11:23:16;;;;;;;6.30;1.70;;;;;;;32.27;48.91;97376.05;110225;1242;70666;-66
2023/06/24 11:25:45;;;;;;;3.80;1.90;;;;;;;32.24;48.25;97372.51;110295;1242;69121;-66
2023/06/24 11:28:18;;;;;;;4.30;2.00;;;;;;;32.10;48.77;97371.65;110244;1242;69208;-67
2023/06/24 11:30:50;;;;;;;6.00;1.90;;;;;;;32.21;47.56;97368.45;110342;1243;58088;-68
2023/06/24 11:33:27;;;;;;;6.90;1.90;;;;;;;32.55;47.83;97367.90;110281;1243;58066;-66
2023/06/24 11:35:56;;;;;;;4.60;2.30;;;;;;;32.53;46.29;97370.34;110300;1241;70347;-65
2023/06/24 11:38:31;;;;;;;8.80;2.20;;;;;;;32.50;46.84;97371.00;110220;1241;69119;-67
2023/06/24 11:41:01;;;;;;;9.30;4.50;;;;;;;32.38;47.10;97365.11;110242;1242;69339;-67
2023/06/24 11:43:30;;;;;;;3.70;2.00;;;;;;;31.97;46.75;97367.42;110256;1241;58147;-66
2023/06/24 11:45:59;;;;;;;4.50;2.00;;;;;;;31.77;46.54;97362.21;110221;1242;58579;-66
2023/06/24 11:48:40;;;;;;;5.90;2.50;;;;;;;31.83;48.38;97360.89;110233;1242;69911;-65
2023/06/24 11:51:13;;;;;;;5.00;1.90;;;;;;;31.66;46.70;97359.21;110245;1242;69139;-68
2023/06/24 11:53:44;;;;;;;4.30;1.80;;;;;;;31.52;47.75;97363.34;110260;1241;68531;-65
2023/06/24 11:56:13;;;;;;;3.60;2.40;;;;;;;32.00;47.44;97365.85;110231;1241;58099;-67
2023/06/24 11:58:43;;;;;;;3.40;1.50;;;;;;;31.61;47.07;97362.40;110257;1240;58131;-66